sensor_id;sensor_type;location;lat;lon;timestamp;temperature;humidity
75088;HTU21D;63664;44.868;40.600;2023-04-03T00:01:06;8.27;72.21
75088;HTU21D;63664;44.868;40.600;2023-04-03T00:03:35;8.26;72.40
75088;HTU21D;63664;44.868;40.600;2023-04-03T00:06:03;8.27;72.67
75088;HTU21D;63664;44.868;40.600;2023-04-03T00:08:34;8.30;72.78
75088;HTU21D;63664;44.868;40.600;2023-04-03T00:11:01;8.32;72.93
75088;HTU21D;63664;44.868;40.600;2023-04-03T00:13:31;8.36;73.08
75088;HTU21D;63664;44.868;40.600;2023-04-03T00:16:01;8.42;73.21
75088;HTU21D;63664;44.868;40.600;2023-04-03T00:18:29;8.43;73.32
75088;HTU21D;63664;44.868;40.600;2023-04-03T00:20:55;8.48;73.43
75088;HTU21D;63664;44.868;40.600;2023-04-03T00:23:25;8.50;73.51
75088;HTU21D;63664;44.868;40.600;2023-04-03T00:25:52;8.52;73.67
75088;HTU21D;63664;44.868;40.600;2023-04-03T00:28:18;8.55;73.71
75088;HTU21D;63664;44.868;40.600;2023-04-03T00:30:49;8.56;73.79
75088;HTU21D;63664;44.868;40.600;2023-04-03T00:33:16;8.57;73.87
75088;HTU21D;63664;44.868;40.600;2023-04-03T00:35:45;8.59;73.87
75088;HTU21D;63664;44.868;40.600;2023-04-03T00:38:11;8.61;73.99
75088;HTU21D;63664;44.868;40.600;2023-04-03T00:40:41;8.63;74.14
75088;HTU21D;63664;44.868;40.600;2023-04-03T00:43:17;8.63;74.27
75088;HTU21D;63664;44.868;40.600;2023-04-03T00:45:48;8.65;74.27
75088;HTU21D;63664;44.868;40.600;2023-04-03T00:48:32;8.67;74.41
75088;HTU21D;63664;44.868;40.600;2023-04-03T00:51:03;8.72;74.38
75088;HTU21D;63664;44.868;40.600;2023-04-03T00:53:40;8.72;74.54
75088;HTU21D;63664;44.868;40.600;2023-04-03T00:56:10;8.76;74.64
75088;HTU21D;63664;44.868;40.600;2023-04-03T00:58:50;8.77;74.83
75088;HTU21D;63664;44.868;40.600;2023-04-03T01:01:24;8.78;74.90
75088;HTU21D;63664;44.868;40.600;2023-04-03T01:03:54;8.80;74.90
75088;HTU21D;63664;44.868;40.600;2023-04-03T01:06:27;8.83;75.06
75088;HTU21D;63664;44.868;40.600;2023-04-03T01:09:03;8.83;75.05
75088;HTU21D;63664;44.868;40.600;2023-04-03T01:11:30;8.82;75.12
75088;HTU21D;63664;44.868;40.600;2023-04-03T01:14:00;8.81;74.76
75088;HTU21D;63664;44.868;40.600;2023-04-03T01:16:28;8.80;74.64
75088;HTU21D;63664;44.868;40.600;2023-04-03T01:18:59;8.78;74.92
75088;HTU21D;63664;44.868;40.600;2023-04-03T01:24:37;8.80;75.33
75088;HTU21D;63664;44.868;40.600;2023-04-03T01:27:09;8.81;75.30
75088;HTU21D;63664;44.868;40.600;2023-04-03T01:29:39;8.82;75.45
75088;HTU21D;63664;44.868;40.600;2023-04-03T01:32:06;8.82;75.55
75088;HTU21D;63664;44.868;40.600;2023-04-03T01:34:32;8.83;75.57
75088;HTU21D;63664;44.868;40.600;2023-04-03T01:36:59;8.85;75.60
75088;HTU21D;63664;44.868;40.600;2023-04-03T01:39:28;8.86;75.74
75088;HTU21D;63664;44.868;40.600;2023-04-03T01:41:59;8.83;75.80
75088;HTU21D;63664;44.868;40.600;2023-04-03T01:44:30;8.81;75.96
75088;HTU21D;63664;44.868;40.600;2023-04-03T01:46:59;8.81;76.09
75088;HTU21D;63664;44.868;40.600;2023-04-03T01:49:27;8.80;76.15
75088;HTU21D;63664;44.868;40.600;2023-04-03T01:51:58;8.82;76.25
75088;HTU21D;63664;44.868;40.600;2023-04-03T01:54:24;8.83;76.28
75088;HTU21D;63664;44.868;40.600;2023-04-03T01:56:51;8.85;76.24
75088;HTU21D;63664;44.868;40.600;2023-04-03T01:59:18;8.86;76.24
75088;HTU21D;63664;44.868;40.600;2023-04-03T02:01:45;8.87;76.24
75088;HTU21D;63664;44.868;40.600;2023-04-03T02:04:13;8.88;76.28
75088;HTU21D;63664;44.868;40.600;2023-04-03T02:06:40;8.89;76.28
75088;HTU21D;63664;44.868;40.600;2023-04-03T02:09:09;8.88;76.38
75088;HTU21D;63664;44.868;40.600;2023-04-03T02:11:35;8.88;76.50
75088;HTU21D;63664;44.868;40.600;2023-04-03T02:14:04;8.89;76.66
75088;HTU21D;63664;44.868;40.600;2023-04-03T02:16:31;8.88;76.61
75088;HTU21D;63664;44.868;40.600;2023-04-03T02:19:02;8.88;76.67
75088;HTU21D;63664;44.868;40.600;2023-04-03T02:21:30;8.88;76.70
75088;HTU21D;63664;44.868;40.600;2023-04-03T02:23:56;8.88;76.79
75088;HTU21D;63664;44.868;40.600;2023-04-03T02:26:23;8.90;76.81
75088;HTU21D;63664;44.868;40.600;2023-04-03T02:28:51;8.91;76.80
75088;HTU21D;63664;44.868;40.600;2023-04-03T02:31:18;8.89;76.84
75088;HTU21D;63664;44.868;40.600;2023-04-03T02:33:48;8.89;76.92
75088;HTU21D;63664;44.868;40.600;2023-04-03T02:36:15;8.89;76.96
75088;HTU21D;63664;44.868;40.600;2023-04-03T02:38:46;8.92;76.94
75088;HTU21D;63664;44.868;40.600;2023-04-03T02:41:13;8.92;76.91
75088;HTU21D;63664;44.868;40.600;2023-04-03T02:43:39;8.95;76.88
75088;HTU21D;63664;44.868;40.600;2023-04-03T02:46:08;8.95;76.82
75088;HTU21D;63664;44.868;40.600;2023-04-03T02:48:37;8.96;76.76
75088;HTU21D;63664;44.868;40.600;2023-04-03T02:51:07;8.96;76.79
75088;HTU21D;63664;44.868;40.600;2023-04-03T02:53:33;8.97;76.78
75088;HTU21D;63664;44.868;40.600;2023-04-03T02:56:07;9.00;76.69
75088;HTU21D;63664;44.868;40.600;2023-04-03T02:58:36;9.01;76.72
75088;HTU21D;63664;44.868;40.600;2023-04-03T03:01:04;9.02;76.67
75088;HTU21D;63664;44.868;40.600;2023-04-03T03:03:30;9.04;76.62
75088;HTU21D;63664;44.868;40.600;2023-04-03T03:06:10;9.06;76.64
75088;HTU21D;63664;44.868;40.600;2023-04-03T03:08:37;9.09;76.53
75088;HTU21D;63664;44.868;40.600;2023-04-03T03:11:06;9.10;76.55
75088;HTU21D;63664;44.868;40.600;2023-04-03T03:13:32;9.14;76.55
75088;HTU21D;63664;44.868;40.600;2023-04-03T03:15:59;9.15;76.48
75088;HTU21D;63664;44.868;40.600;2023-04-03T03:18:26;9.18;76.50
75088;HTU21D;63664;44.868;40.600;2023-04-03T03:20:57;9.18;76.65
75088;HTU21D;63664;44.868;40.600;2023-04-03T03:23:27;9.20;76.81
75088;HTU21D;63664;44.868;40.600;2023-04-03T03:26:02;9.23;76.88
75088;HTU21D;63664;44.868;40.600;2023-04-03T03:28:29;9.25;76.86
75088;HTU21D;63664;44.868;40.600;2023-04-03T03:30:56;9.29;77.02
75088;HTU21D;63664;44.868;40.600;2023-04-03T03:33:23;9.32;77.07
75088;HTU21D;63664;44.868;40.600;2023-04-03T03:35:53;9.36;77.03
75088;HTU21D;63664;44.868;40.600;2023-04-03T03:38:24;9.40;76.94
75088;HTU21D;63664;44.868;40.600;2023-04-03T03:40:54;9.44;77.03
75088;HTU21D;63664;44.868;40.600;2023-04-03T03:43:23;9.47;77.17
75088;HTU21D;63664;44.868;40.600;2023-04-03T03:45:52;9.50;77.29
75088;HTU21D;63664;44.868;40.600;2023-04-03T03:48:19;9.54;77.31
75088;HTU21D;63664;44.868;40.600;2023-04-03T03:50:45;9.59;77.34
75088;HTU21D;63664;44.868;40.600;2023-04-03T03:53:12;9.63;77.36
75088;HTU21D;63664;44.868;40.600;2023-04-03T03:55:42;9.68;77.32
75088;HTU21D;63664;44.868;40.600;2023-04-03T03:58:09;9.71;77.34
75088;HTU21D;63664;44.868;40.600;2023-04-03T04:00:38;9.77;77.35
75088;HTU21D;63664;44.868;40.600;2023-04-03T04:03:05;9.79;77.49
75088;HTU21D;63664;44.868;40.600;2023-04-03T04:05:34;9.83;77.52
75088;HTU21D;63664;44.868;40.600;2023-04-03T04:08:01;9.85;77.47
75088;HTU21D;63664;44.868;40.600;2023-04-03T04:10:33;9.89;77.56
75088;HTU21D;63664;44.868;40.600;2023-04-03T04:13:00;9.92;77.47
75088;HTU21D;63664;44.868;40.600;2023-04-03T04:15:28;9.97;77.44
75088;HTU21D;63664;44.868;40.600;2023-04-03T04:17:56;10.01;77.44
75088;HTU21D;63664;44.868;40.600;2023-04-03T04:20:28;10.04;77.46
75088;HTU21D;63664;44.868;40.600;2023-04-03T04:22:54;10.08;77.46
75088;HTU21D;63664;44.868;40.600;2023-04-03T04:25:22;10.11;77.50
75088;HTU21D;63664;44.868;40.600;2023-04-03T04:27:49;10.14;77.53
75088;HTU21D;63664;44.868;40.600;2023-04-03T04:30:17;10.15;77.63
75088;HTU21D;63664;44.868;40.600;2023-04-03T04:32:48;10.15;77.62
75088;HTU21D;63664;44.868;40.600;2023-04-03T04:35:17;10.18;77.62
75088;HTU21D;63664;44.868;40.600;2023-04-03T04:37:46;10.20;77.60
75088;HTU21D;63664;44.868;40.600;2023-04-03T04:40:16;10.23;77.57
75088;HTU21D;63664;44.868;40.600;2023-04-03T04:42:45;10.23;77.56
75088;HTU21D;63664;44.868;40.600;2023-04-03T04:45:11;10.26;77.48
75088;HTU21D;63664;44.868;40.600;2023-04-03T04:47:43;10.28;77.46
75088;HTU21D;63664;44.868;40.600;2023-04-03T04:50:12;10.29;77.40
75088;HTU21D;63664;44.868;40.600;2023-04-03T04:52:42;10.31;77.38
75088;HTU21D;63664;44.868;40.600;2023-04-03T04:55:09;10.33;77.30
75088;HTU21D;63664;44.868;40.600;2023-04-03T04:57:35;10.35;77.35
75088;HTU21D;63664;44.868;40.600;2023-04-03T05:00:03;10.37;77.42
75088;HTU21D;63664;44.868;40.600;2023-04-03T05:02:30;10.40;77.49
75088;HTU21D;63664;44.868;40.600;2023-04-03T05:05:01;10.43;77.48
75088;HTU21D;63664;44.868;40.600;2023-04-03T05:07:29;10.44;77.55
75088;HTU21D;63664;44.868;40.600;2023-04-03T05:09:57;10.49;77.71
75088;HTU21D;63664;44.868;40.600;2023-04-03T05:12:24;10.51;77.86
75088;HTU21D;63664;44.868;40.600;2023-04-03T05:14:55;10.53;77.97
75088;HTU21D;63664;44.868;40.600;2023-04-03T05:17:23;10.59;77.92
75088;HTU21D;63664;44.868;40.600;2023-04-03T05:19:52;10.62;77.85
75088;HTU21D;63664;44.868;40.600;2023-04-03T05:22:21;10.66;77.82
75088;HTU21D;63664;44.868;40.600;2023-04-03T05:24:49;10.71;77.72
75088;HTU21D;63664;44.868;40.600;2023-04-03T05:27:19;10.75;77.62
75088;HTU21D;63664;44.868;40.600;2023-04-03T05:29:52;10.83;77.51
75088;HTU21D;63664;44.868;40.600;2023-04-03T05:32:24;10.88;77.37
75088;HTU21D;63664;44.868;40.600;2023-04-03T05:35:09;10.94;77.21
75088;HTU21D;63664;44.868;40.600;2023-04-03T05:37:35;11.00;77.15
75088;HTU21D;63664;44.868;40.600;2023-04-03T05:40:05;11.08;77.03
75088;HTU21D;63664;44.868;40.600;2023-04-03T05:42:33;11.15;76.89
75088;HTU21D;63664;44.868;40.600;2023-04-03T05:44:59;11.24;76.79
75088;HTU21D;63664;44.868;40.600;2023-04-03T05:47:26;11.31;76.68
75088;HTU21D;63664;44.868;40.600;2023-04-03T05:49:57;11.38;76.56
75088;HTU21D;63664;44.868;40.600;2023-04-03T05:52:33;11.43;76.36
75088;HTU21D;63664;44.868;40.600;2023-04-03T05:55:02;11.52;76.16
75088;HTU21D;63664;44.868;40.600;2023-04-03T05:57:30;11.58;76.03
75088;HTU21D;63664;44.868;40.600;2023-04-03T05:59:57;11.67;75.97
75088;HTU21D;63664;44.868;40.600;2023-04-03T06:02:27;11.74;75.83
75088;HTU21D;63664;44.868;40.600;2023-04-03T06:04:53;11.84;75.74
75088;HTU21D;63664;44.868;40.600;2023-04-03T06:07:22;11.93;75.61
75088;HTU21D;63664;44.868;40.600;2023-04-03T06:09:50;12.04;75.34
75088;HTU21D;63664;44.868;40.600;2023-04-03T06:12:17;12.13;75.08
75088;HTU21D;63664;44.868;40.600;2023-04-03T06:14:47;12.21;74.81
75088;HTU21D;63664;44.868;40.600;2023-04-03T06:17:17;12.32;74.69
75088;HTU21D;63664;44.868;40.600;2023-04-03T06:19:45;12.43;74.38
75088;HTU21D;63664;44.868;40.600;2023-04-03T06:22:12;12.53;74.28
75088;HTU21D;63664;44.868;40.600;2023-04-03T06:24:41;12.65;74.04
75088;HTU21D;63664;44.868;40.600;2023-04-03T06:27:10;12.77;73.77
75088;HTU21D;63664;44.868;40.600;2023-04-03T06:29:38;12.91;73.64
75088;HTU21D;63664;44.868;40.600;2023-04-03T06:32:07;13.09;73.31
75088;HTU21D;63664;44.868;40.600;2023-04-03T06:34:36;13.23;72.88
75088;HTU21D;63664;44.868;40.600;2023-04-03T06:37:06;13.38;72.48
75088;HTU21D;63664;44.868;40.600;2023-04-03T06:39:32;13.50;72.25
75088;HTU21D;63664;44.868;40.600;2023-04-03T06:42:01;13.63;72.01
75088;HTU21D;63664;44.868;40.600;2023-04-03T06:44:36;13.78;71.75
75088;HTU21D;63664;44.868;40.600;2023-04-03T06:47:02;13.94;71.68
75088;HTU21D;63664;44.868;40.600;2023-04-03T06:49:29;14.08;71.35
75088;HTU21D;63664;44.868;40.600;2023-04-03T06:51:56;14.17;71.27
75088;HTU21D;63664;44.868;40.600;2023-04-03T06:54:23;14.23;71.21
75088;HTU21D;63664;44.868;40.600;2023-04-03T06:56:49;14.33;70.86
75088;HTU21D;63664;44.868;40.600;2023-04-03T06:59:18;14.45;70.56
75088;HTU21D;63664;44.868;40.600;2023-04-03T07:01:45;14.56;70.40
75088;HTU21D;63664;44.868;40.600;2023-04-03T07:04:14;14.59;69.98
75088;HTU21D;63664;44.868;40.600;2023-04-03T07:06:40;14.60;69.87
75088;HTU21D;63664;44.868;40.600;2023-04-03T07:09:09;14.60;69.82
75088;HTU21D;63664;44.868;40.600;2023-04-03T07:11:39;14.67;69.83
75088;HTU21D;63664;44.868;40.600;2023-04-03T07:14:05;14.75;69.65
75088;HTU21D;63664;44.868;40.600;2023-04-03T07:16:35;14.83;69.51
75088;HTU21D;63664;44.868;40.600;2023-04-03T07:19:03;14.88;69.34
75088;HTU21D;63664;44.868;40.600;2023-04-03T07:21:29;14.95;69.23
75088;HTU21D;63664;44.868;40.600;2023-04-03T07:23:56;14.98;69.26
75088;HTU21D;63664;44.868;40.600;2023-04-03T07:26:23;15.02;69.04
75088;HTU21D;63664;44.868;40.600;2023-04-03T07:28:49;15.01;69.16
75088;HTU21D;63664;44.868;40.600;2023-04-03T07:31:16;15.02;69.10
75088;HTU21D;63664;44.868;40.600;2023-04-03T07:33:44;15.00;69.07
75088;HTU21D;63664;44.868;40.600;2023-04-03T07:36:17;14.93;69.09
75088;HTU21D;63664;44.868;40.600;2023-04-03T07:38:43;14.86;69.33
75088;HTU21D;63664;44.868;40.600;2023-04-03T07:41:18;14.86;69.51
75088;HTU21D;63664;44.868;40.600;2023-04-03T07:43:48;14.85;69.55
75088;HTU21D;63664;44.868;40.600;2023-04-03T07:46:18;14.84;69.77
75088;HTU21D;63664;44.868;40.600;2023-04-03T07:48:44;14.82;69.88
75088;HTU21D;63664;44.868;40.600;2023-04-03T07:51:10;14.85;70.07
75088;HTU21D;63664;44.868;40.600;2023-04-03T07:53:37;14.91;69.98
75088;HTU21D;63664;44.868;40.600;2023-04-03T07:56:03;14.93;70.25
75088;HTU21D;63664;44.868;40.600;2023-04-03T07:58:34;15.02;70.55
75088;HTU21D;63664;44.868;40.600;2023-04-03T08:01:00;15.13;70.47
75088;HTU21D;63664;44.868;40.600;2023-04-03T08:03:27;15.19;70.21
75088;HTU21D;63664;44.868;40.600;2023-04-03T08:05:53;15.27;70.27
75088;HTU21D;63664;44.868;40.600;2023-04-03T08:08:22;15.32;70.36
75088;HTU21D;63664;44.868;40.600;2023-04-03T08:10:53;15.37;70.26
75088;HTU21D;63664;44.868;40.600;2023-04-03T08:13:21;15.40;70.00
75088;HTU21D;63664;44.868;40.600;2023-04-03T08:15:47;15.42;69.68
75088;HTU21D;63664;44.868;40.600;2023-04-03T08:18:21;15.52;69.78
75088;HTU21D;63664;44.868;40.600;2023-04-03T08:20:51;15.67;69.44
75088;HTU21D;63664;44.868;40.600;2023-04-03T08:23:18;15.76;69.26
75088;HTU21D;63664;44.868;40.600;2023-04-03T08:25:47;15.88;69.25
75088;HTU21D;63664;44.868;40.600;2023-04-03T08:28:15;16.00;68.81
75088;HTU21D;63664;44.868;40.600;2023-04-03T08:30:43;16.07;68.52
75088;HTU21D;63664;44.868;40.600;2023-04-03T08:33:10;16.04;68.63
75088;HTU21D;63664;44.868;40.600;2023-04-03T08:35:42;16.00;68.73
75088;HTU21D;63664;44.868;40.600;2023-04-03T08:38:09;15.90;68.83
75088;HTU21D;63664;44.868;40.600;2023-04-03T08:40:36;15.80;69.00
75088;HTU21D;63664;44.868;40.600;2023-04-03T08:43:28;15.73;69.10
75088;HTU21D;63664;44.868;40.600;2023-04-03T08:45:57;15.71;69.10
75088;HTU21D;63664;44.868;40.600;2023-04-03T08:48:27;15.60;69.22
75088;HTU21D;63664;44.868;40.600;2023-04-03T08:50:59;15.40;69.93
75088;HTU21D;63664;44.868;40.600;2023-04-03T08:53:34;15.29;70.54
75088;HTU21D;63664;44.868;40.600;2023-04-03T08:56:08;15.28;70.91
75088;HTU21D;63664;44.868;40.600;2023-04-03T08:58:56;15.25;71.14
75088;HTU21D;63664;44.868;40.600;2023-04-03T09:01:40;15.16;71.35
75088;HTU21D;63664;44.868;40.600;2023-04-03T09:04:15;15.08;71.76
75088;HTU21D;63664;44.868;40.600;2023-04-03T09:07:02;14.99;72.36
75088;HTU21D;63664;44.868;40.600;2023-04-03T09:09:39;14.96;72.78
75088;HTU21D;63664;44.868;40.600;2023-04-03T09:12:37;14.96;73.13
75088;HTU21D;63664;44.868;40.600;2023-04-03T09:15:23;14.94;73.44
75088;HTU21D;63664;44.868;40.600;2023-04-03T09:18:28;14.83;73.78
75088;HTU21D;63664;44.868;40.600;2023-04-03T09:21:20;14.72;74.64
75088;HTU21D;63664;44.868;40.600;2023-04-03T09:23:57;14.62;74.99
75088;HTU21D;63664;44.868;40.600;2023-04-03T09:26:39;14.48;75.59
75088;HTU21D;63664;44.868;40.600;2023-04-03T09:29:08;14.44;76.09
75088;HTU21D;63664;44.868;40.600;2023-04-03T09:31:41;14.48;76.53
75088;HTU21D;63664;44.868;40.600;2023-04-03T09:34:27;14.50;76.82
75088;HTU21D;63664;44.868;40.600;2023-04-03T09:36:58;14.49;76.93
75088;HTU21D;63664;44.868;40.600;2023-04-03T09:39:33;14.53;76.24
75088;HTU21D;63664;44.868;40.600;2023-04-03T09:42:22;14.55;76.71
75088;HTU21D;63664;44.868;40.600;2023-04-03T09:45:01;14.64;77.12
75088;HTU21D;63664;44.868;40.600;2023-04-03T09:47:36;14.81;77.18
75088;HTU21D;63664;44.868;40.600;2023-04-03T09:52:45;15.00;77.12
75088;HTU21D;63664;44.868;40.600;2023-04-03T09:55:24;15.01;77.29
75088;HTU21D;63664;44.868;40.600;2023-04-03T09:57:59;14.97;77.27
75088;HTU21D;63664;44.868;40.600;2023-04-03T10:00:37;14.91;77.47
75088;HTU21D;63664;44.868;40.600;2023-04-03T10:03:08;14.84;77.50
75088;HTU21D;63664;44.868;40.600;2023-04-03T10:05:54;14.78;77.85
75088;HTU21D;63664;44.868;40.600;2023-04-03T10:08:32;14.78;78.04
75088;HTU21D;63664;44.868;40.600;2023-04-03T10:11:14;14.80;77.86
75088;HTU21D;63664;44.868;40.600;2023-04-03T10:14:01;14.80;77.56
75088;HTU21D;63664;44.868;40.600;2023-04-03T10:16:41;14.79;77.48
75088;HTU21D;63664;44.868;40.600;2023-04-03T10:19:29;14.78;77.40
75088;HTU21D;63664;44.868;40.600;2023-04-03T10:21:58;14.75;77.29
75088;HTU21D;63664;44.868;40.600;2023-04-03T10:25:46;14.74;77.30
75088;HTU21D;63664;44.868;40.600;2023-04-03T10:28:05;14.71;77.44
75088;HTU21D;63664;44.868;40.600;2023-04-03T10:35:37;14.73;77.39
75088;HTU21D;63664;44.868;40.600;2023-04-03T10:41:07;14.64;77.69
75088;HTU21D;63664;44.868;40.600;2023-04-03T10:43:43;14.56;77.76
75088;HTU21D;63664;44.868;40.600;2023-04-03T10:46:27;14.54;77.81
75088;HTU21D;63664;44.868;40.600;2023-04-03T10:51:42;14.51;77.81
75088;HTU21D;63664;44.868;40.600;2023-04-03T10:54:25;14.51;77.80
75088;HTU21D;63664;44.868;40.600;2023-04-03T10:57:08;14.51;77.95
75088;HTU21D;63664;44.868;40.600;2023-04-03T10:59:42;14.52;77.93
75088;HTU21D;63664;44.868;40.600;2023-04-03T11:02:25;14.52;77.91
75088;HTU21D;63664;44.868;40.600;2023-04-03T11:05:04;14.52;77.70
75088;HTU21D;63664;44.868;40.600;2023-04-03T11:07:45;14.50;77.75
75088;HTU21D;63664;44.868;40.600;2023-04-03T11:10:22;14.48;77.87
75088;HTU21D;63664;44.868;40.600;2023-04-03T11:13:20;14.44;78.11
75088;HTU21D;63664;44.868;40.600;2023-04-03T11:15:51;14.40;78.20
75088;HTU21D;63664;44.868;40.600;2023-04-03T11:18:47;14.38;78.47
75088;HTU21D;63664;44.868;40.600;2023-04-03T11:21:28;14.35;78.62
75088;HTU21D;63664;44.868;40.600;2023-04-03T11:23:57;14.29;78.68
75088;HTU21D;63664;44.868;40.600;2023-04-03T11:26:29;14.24;78.98
75088;HTU21D;63664;44.868;40.600;2023-04-03T11:29:00;14.21;79.26
75088;HTU21D;63664;44.868;40.600;2023-04-03T11:34:24;14.20;79.41
75088;HTU21D;63664;44.868;40.600;2023-04-03T11:36:57;14.14;79.47
75088;HTU21D;63664;44.868;40.600;2023-04-03T11:39:32;14.09;79.78
75088;HTU21D;63664;44.868;40.600;2023-04-03T11:47:54;14.07;80.27
75088;HTU21D;63664;44.868;40.600;2023-04-03T11:55:53;14.04;80.95
75088;HTU21D;63664;44.868;40.600;2023-04-03T11:58:32;14.03;81.14
75088;HTU21D;63664;44.868;40.600;2023-04-03T12:01:04;14.01;81.43
75088;HTU21D;63664;44.868;40.600;2023-04-03T12:04:15;13.99;81.61
75088;HTU21D;63664;44.868;40.600;2023-04-03T12:06:41;13.98;81.78
75088;HTU21D;63664;44.868;40.600;2023-04-03T12:12:34;13.95;82.09
75088;HTU21D;63664;44.868;40.600;2023-04-03T12:15:21;13.94;82.38
75088;HTU21D;63664;44.868;40.600;2023-04-03T12:17:50;13.93;82.63
75088;HTU21D;63664;44.868;40.600;2023-04-03T12:20:52;13.90;82.69
75088;HTU21D;63664;44.868;40.600;2023-04-03T12:23:34;13.86;82.72
75088;HTU21D;63664;44.868;40.600;2023-04-03T12:26:06;13.84;82.84
75088;HTU21D;63664;44.868;40.600;2023-04-03T12:28:50;13.81;82.88
75088;HTU21D;63664;44.868;40.600;2023-04-03T12:31:19;13.80;82.94
75088;HTU21D;63664;44.868;40.600;2023-04-03T12:34:09;13.79;83.20
75088;HTU21D;63664;44.868;40.600;2023-04-03T12:36:41;13.79;83.16
75088;HTU21D;63664;44.868;40.600;2023-04-03T12:44:50;13.83;83.45
75088;HTU21D;63664;44.868;40.600;2023-04-03T12:49:50;13.86;83.55
75088;HTU21D;63664;44.868;40.600;2023-04-03T12:52:35;13.85;83.61
75088;HTU21D;63664;44.868;40.600;2023-04-03T12:55:20;13.85;83.62
75088;HTU21D;63664;44.868;40.600;2023-04-03T12:57:50;13.84;83.55
75088;HTU21D;63664;44.868;40.600;2023-04-03T13:00:33;13.83;83.62
75088;HTU21D;63664;44.868;40.600;2023-04-03T13:03:06;13.84;83.62
75088;HTU21D;63664;44.868;40.600;2023-04-03T13:05:49;13.82;83.59
75088;HTU21D;63664;44.868;40.600;2023-04-03T13:08:18;13.82;83.77
75088;HTU21D;63664;44.868;40.600;2023-04-03T13:10:53;13.79;83.65
75088;HTU21D;63664;44.868;40.600;2023-04-03T13:13:21;13.79;83.53
75088;HTU21D;63664;44.868;40.600;2023-04-03T13:15:49;13.78;83.40
75088;HTU21D;63664;44.868;40.600;2023-04-03T13:18:31;13.76;83.46
75088;HTU21D;63664;44.868;40.600;2023-04-03T13:21:01;13.78;83.46
75088;HTU21D;63664;44.868;40.600;2023-04-03T13:23:33;13.75;83.51
75088;HTU21D;63664;44.868;40.600;2023-04-03T13:26:01;13.75;83.50
75088;HTU21D;63664;44.868;40.600;2023-04-03T13:28:32;13.74;83.49
75088;HTU21D;63664;44.868;40.600;2023-04-03T13:33:28;13.71;83.61
75088;HTU21D;63664;44.868;40.600;2023-04-03T13:36:05;13.69;83.61
75088;HTU21D;63664;44.868;40.600;2023-04-03T13:38:35;13.67;83.55
75088;HTU21D;63664;44.868;40.600;2023-04-03T13:41:29;13.65;83.72
75088;HTU21D;63664;44.868;40.600;2023-04-03T13:44:14;13.65;83.75
75088;HTU21D;63664;44.868;40.600;2023-04-03T13:46:41;13.63;83.86
75088;HTU21D;63664;44.868;40.600;2023-04-03T13:49:31;13.64;83.98
75088;HTU21D;63664;44.868;40.600;2023-04-03T13:51:58;13.64;83.94
75088;HTU21D;63664;44.868;40.600;2023-04-03T13:54:38;13.65;84.14
75088;HTU21D;63664;44.868;40.600;2023-04-03T13:57:16;13.66;84.16
75088;HTU21D;63664;44.868;40.600;2023-04-03T13:59:45;13.70;83.94
75088;HTU21D;63664;44.868;40.600;2023-04-03T14:02:19;13.71;84.00
75088;HTU21D;63664;44.868;40.600;2023-04-03T14:04:51;13.75;83.98
75088;HTU21D;63664;44.868;40.600;2023-04-03T14:07:22;13.76;83.85
75088;HTU21D;63664;44.868;40.600;2023-04-03T14:09:50;13.76;83.87
75088;HTU21D;63664;44.868;40.600;2023-04-03T14:12:27;13.77;83.91
75088;HTU21D;63664;44.868;40.600;2023-04-03T14:15:03;13.78;84.01
75088;HTU21D;63664;44.868;40.600;2023-04-03T14:17:30;13.75;84.03
75088;HTU21D;63664;44.868;40.600;2023-04-03T14:19:58;13.75;83.94
75088;HTU21D;63664;44.868;40.600;2023-04-03T14:22:30;13.73;83.98
75088;HTU21D;63664;44.868;40.600;2023-04-03T14:24:57;13.71;84.01
75088;HTU21D;63664;44.868;40.600;2023-04-03T14:27:33;13.69;84.18
75088;HTU21D;63664;44.868;40.600;2023-04-03T14:30:02;13.69;84.13
75088;HTU21D;63664;44.868;40.600;2023-04-03T14:32:29;13.69;84.19
75088;HTU21D;63664;44.868;40.600;2023-04-03T14:34:56;13.68;84.28
75088;HTU21D;63664;44.868;40.600;2023-04-03T14:37:28;13.68;84.02
75088;HTU21D;63664;44.868;40.600;2023-04-03T14:39:57;13.65;84.07
75088;HTU21D;63664;44.868;40.600;2023-04-03T14:42:27;13.61;84.41
75088;HTU21D;63664;44.868;40.600;2023-04-03T14:44:54;13.60;84.58
75088;HTU21D;63664;44.868;40.600;2023-04-03T14:47:24;13.59;84.80
75088;HTU21D;63664;44.868;40.600;2023-04-03T14:50:00;13.58;84.89
75088;HTU21D;63664;44.868;40.600;2023-04-03T14:52:33;13.56;85.03
75088;HTU21D;63664;44.868;40.600;2023-04-03T14:55:06;13.56;85.04
75088;HTU21D;63664;44.868;40.600;2023-04-03T14:57:34;13.54;84.99
75088;HTU21D;63664;44.868;40.600;2023-04-03T15:00:06;13.52;85.00
75088;HTU21D;63664;44.868;40.600;2023-04-03T15:02:35;13.52;84.95
75088;HTU21D;63664;44.868;40.600;2023-04-03T15:05:04;13.51;84.95
75088;HTU21D;63664;44.868;40.600;2023-04-03T15:07:32;13.53;84.64
75088;HTU21D;63664;44.868;40.600;2023-04-03T15:10:16;13.49;84.63
75088;HTU21D;63664;44.868;40.600;2023-04-03T15:12:46;13.46;84.74
75088;HTU21D;63664;44.868;40.600;2023-04-03T15:15:18;13.45;84.89
75088;HTU21D;63664;44.868;40.600;2023-04-03T15:17:54;13.41;84.90
75088;HTU21D;63664;44.868;40.600;2023-04-03T15:20:28;13.37;84.95
75088;HTU21D;63664;44.868;40.600;2023-04-03T15:22:57;13.34;85.00
75088;HTU21D;63664;44.868;40.600;2023-04-03T15:25:26;13.29;85.11
75088;HTU21D;63664;44.868;40.600;2023-04-03T15:27:54;13.23;85.21
75088;HTU21D;63664;44.868;40.600;2023-04-03T15:30:21;13.17;85.28
75088;HTU21D;63664;44.868;40.600;2023-04-03T15:32:50;13.12;85.39
75088;HTU21D;63664;44.868;40.600;2023-04-03T15:35:17;13.08;85.42
75088;HTU21D;63664;44.868;40.600;2023-04-03T15:37:43;13.02;85.55
75088;HTU21D;63664;44.868;40.600;2023-04-03T15:40:13;12.96;85.67
75088;HTU21D;63664;44.868;40.600;2023-04-03T15:42:39;12.91;85.80
75088;HTU21D;63664;44.868;40.600;2023-04-03T15:45:09;12.86;86.03
75088;HTU21D;63664;44.868;40.600;2023-04-03T15:47:35;12.81;85.76
75088;HTU21D;63664;44.868;40.600;2023-04-03T15:50:03;12.74;85.80
75088;HTU21D;63664;44.868;40.600;2023-04-03T15:52:36;12.66;86.09
75088;HTU21D;63664;44.868;40.600;2023-04-03T15:55:03;12.64;86.22
75088;HTU21D;63664;44.868;40.600;2023-04-03T15:57:29;12.61;86.32
75088;HTU21D;63664;44.868;40.600;2023-04-03T16:00:01;12.59;86.48
75088;HTU21D;63664;44.868;40.600;2023-04-03T16:02:34;12.55;86.48
75088;HTU21D;63664;44.868;40.600;2023-04-03T16:05:02;12.51;86.55
75088;HTU21D;63664;44.868;40.600;2023-04-03T16:07:29;12.50;86.61
75088;HTU21D;63664;44.868;40.600;2023-04-03T16:09:56;12.47;86.67
75088;HTU21D;63664;44.868;40.600;2023-04-03T16:12:24;12.43;86.79
75088;HTU21D;63664;44.868;40.600;2023-04-03T16:14:51;12.40;86.77
75088;HTU21D;63664;44.868;40.600;2023-04-03T16:17:19;12.33;86.84